createdAt,value
2024-05-09T00:00:40.068Z,34.73
2024-05-09T00:03:09.267Z,31.53
2024-05-09T00:05:37.577Z,36.07
2024-05-09T00:08:05.074Z,32.17
2024-05-09T00:10:36.705Z,28.33
2024-05-09T00:13:06.778Z,30.60
2024-05-09T00:15:34.504Z,28.67
2024-05-09T00:18:02.432Z,31.67
2024-05-09T00:20:37.517Z,30.50
2024-05-09T00:23:08.721Z,32.27
2024-05-09T00:25:36.403Z,28.53
2024-05-09T00:28:03.624Z,28.93
2024-05-09T00:30:35.142Z,29.10
2024-05-09T00:33:08.858Z,30.57
2024-05-09T00:35:37.211Z,29.27
2024-05-09T00:38:04.737Z,34.60
2024-05-09T00:40:40.006Z,34.93
2024-05-09T00:43:09.892Z,31.30
2024-05-09T00:45:37.548Z,37.13
2024-05-09T00:48:07.478Z,38.83
2024-05-09T00:50:38.548Z,39.23
2024-05-09T00:53:07.779Z,37.70
2024-05-09T00:55:36.521Z,39.57
2024-05-09T00:58:05.877Z,38.40
2024-05-09T01:00:38.905Z,43.00
2024-05-09T01:03:12.715Z,48.43
2024-05-09T01:05:41.946Z,43.20
2024-05-09T01:08:10.497Z,35.97
2024-05-09T01:10:38.248Z,37.30
2024-05-09T01:13:06.283Z,42.20
2024-05-09T01:15:34.756Z,36.03
2024-05-09T01:18:06.891Z,33.87
2024-05-09T01:20:41.114Z,32.70
2024-05-09T01:23:11.185Z,35.83
2024-05-09T01:25:38.359Z,37.57
2024-05-09T01:28:06.635Z,34.43
2024-05-09T01:30:36.096Z,30.73
2024-05-09T01:33:09.690Z,36.10
2024-05-09T01:35:38.944Z,36.87
2024-05-09T01:38:06.981Z,31.87
2024-05-09T01:40:38.541Z,34.80
2024-05-09T01:43:11.605Z,30.80
2024-05-09T01:45:40.695Z,39.37
2024-05-09T01:48:09.080Z,38.13
2024-05-09T01:50:40.245Z,35.53
2024-05-09T01:53:10.581Z,35.00
2024-05-09T01:55:37.716Z,34.90
2024-05-09T01:58:04.885Z,34.43
2024-05-09T02:00:38.831Z,33.53
2024-05-09T02:03:11.539Z,33.40
2024-05-09T02:05:41.616Z,34.27
2024-05-09T02:08:14.757Z,36.57
2024-05-09T02:10:41.885Z,33.10
2024-05-09T02:13:09.408Z,33.67
2024-05-09T02:15:36.515Z,33.60
2024-05-09T02:18:03.691Z,35.43
2024-05-09T02:20:36.144Z,35.40
2024-05-09T02:23:05.991Z,35.90
2024-05-09T02:25:33.323Z,36.00
2024-05-09T02:28:00.296Z,38.17
2024-05-09T02:30:37.752Z,31.70
2024-05-09T02:33:09.542Z,37.00
2024-05-09T02:35:37.858Z,38.90
2024-05-09T02:38:04.975Z,33.27
2024-05-09T02:40:37.154Z,36.83
2024-05-09T02:43:07.888Z,35.17
2024-05-09T02:45:35.254Z,35.33
2024-05-09T02:48:02.588Z,35.50
2024-05-09T02:50:36.973Z,35.60
2024-05-09T02:53:10.646Z,33.07
2024-05-09T02:55:38.652Z,37.53
2024-05-09T02:58:09.367Z,40.87
2024-05-09T03:00:40.604Z,32.93
2024-05-09T03:03:14.673Z,36.83
2024-05-09T03:05:45.722Z,45.73
2024-05-09T03:08:13.216Z,46.13
2024-05-09T03:10:40.404Z,38.67
2024-05-09T03:13:08.638Z,39.27
2024-05-09T03:15:35.905Z,33.10
2024-05-09T03:18:03.799Z,40.40
2024-05-09T03:20:34.665Z,34.40
2024-05-09T03:23:04.148Z,36.40
2024-05-09T03:25:31.347Z,36.47
2024-05-09T03:27:58.217Z,36.10
2024-05-09T03:30:36.659Z,41.37
2024-05-09T03:33:18.034Z,44.27
2024-05-09T03:35:47.042Z,44.80
2024-05-09T03:38:15.102Z,39.23
2024-05-09T03:40:46.694Z,42.50
2024-05-09T03:43:14.286Z,38.40
2024-05-09T03:45:42.475Z,43.17
2024-05-09T03:48:09.598Z,38.27
2024-05-09T03:50:37.465Z,38.00
2024-05-09T03:53:05.224Z,40.10
2024-05-09T03:55:32.438Z,40.90
2024-05-09T03:57:59.561Z,38.90
2024-05-09T04:00:35.026Z,42.33
2024-05-09T04:03:08.540Z,48.00
2024-05-09T04:05:39.564Z,50.97
2024-05-09T04:08:07.041Z,56.60
2024-05-09T04:10:35.103Z,52.13
2024-05-09T04:13:03.505Z,58.10
2024-05-09T04:15:30.993Z,59.67
2024-05-09T04:17:58.121Z,63.03
2024-05-09T04:20:35.866Z,59.87
2024-05-09T04:23:07.715Z,60.80
2024-05-09T04:25:35.306Z,68.33
2024-05-09T04:28:02.398Z,60.37
2024-05-09T04:30:36.960Z,62.80
2024-05-09T04:33:08.925Z,63.80
2024-05-09T04:35:38.564Z,60.77
2024-05-09T04:38:06.238Z,51.40
2024-05-09T04:40:36.082Z,58.33
2024-05-09T04:43:13.740Z,51.90
2024-05-09T04:45:40.882Z,58.67
2024-05-09T04:48:09.477Z,54.50
2024-05-09T04:50:38.929Z,59.53
2024-05-09T04:53:09.478Z,53.20
2024-05-09T04:55:37.652Z,55.33
2024-05-09T04:58:05.530Z,58.50
2024-05-09T05:00:37.072Z,56.80
2024-05-09T05:03:13.249Z,56.53
2024-05-09T05:05:42.767Z,63.30
2024-05-09T05:08:14.132Z,62.60
2024-05-09T05:10:42.380Z,58.60
2024-05-09T05:13:17.674Z,66.83
2024-05-09T05:15:46.403Z,52.80
2024-05-09T05:18:14.886Z,56.87
2024-05-09T05:20:42.429Z,65.07
2024-05-09T05:23:14.902Z,63.23
2024-05-09T05:25:43.034Z,55.30
2024-05-09T05:28:10.706Z,59.43
2024-05-09T05:30:38.402Z,63.50
2024-05-09T05:33:06.700Z,66.77
2024-05-09T05:35:34.701Z,64.13
2024-05-09T05:38:02.166Z,63.57
2024-05-09T05:40:36.301Z,58.27
2024-05-09T05:43:09.888Z,74.77
2024-05-09T05:45:37.433Z,65.13
2024-05-09T05:48:06.051Z,64.47
2024-05-09T05:50:36.681Z,66.50
2024-05-09T05:53:07.515Z,69.63
2024-05-09T05:55:44.686Z,56.30
2024-05-09T05:58:12.490Z,59.37
2024-05-09T06:00:41.954Z,55.27
2024-05-09T06:03:11.446Z,54.83
2024-05-09T06:05:44.201Z,53.30
2024-05-09T06:08:11.691Z,45.27
2024-05-09T06:10:40.697Z,51.30
2024-05-09T06:13:11.389Z,44.30
2024-05-09T06:15:39.299Z,47.30
2024-05-09T06:18:07.410Z,43.50
2024-05-09T06:20:37.272Z,44.77
2024-05-09T06:23:09.522Z,41.57
2024-05-09T06:25:37.218Z,39.40
2024-05-09T06:28:05.119Z,39.67
2024-05-09T06:30:38.795Z,40.10
2024-05-09T06:33:10.834Z,37.97
2024-05-09T06:35:39.728Z,43.07
2024-05-09T06:38:09.245Z,42.57
2024-05-09T06:40:39.449Z,35.97
2024-05-09T06:43:12.012Z,35.77
2024-05-09T06:45:39.984Z,39.10
2024-05-09T06:48:08.233Z,35.20
2024-05-09T06:50:38.078Z,36.80
2024-05-09T06:53:06.847Z,37.27
2024-05-09T06:55:33.770Z,35.17
2024-05-09T06:58:00.682Z,38.90
2024-05-09T07:00:35.650Z,35.40
2024-05-09T07:03:19.364Z,35.30
2024-05-09T07:05:48.366Z,32.80
2024-05-09T07:08:16.562Z,36.00
2024-05-09T07:10:43.849Z,34.93
2024-05-09T07:13:12.362Z,30.13
2024-05-09T07:15:39.921Z,32.80
2024-05-09T07:18:11.927Z,31.63
2024-05-09T07:20:40.117Z,30.67
2024-05-09T07:23:10.916Z,31.43
2024-05-09T07:25:38.500Z,33.60
2024-05-09T07:28:06.574Z,26.73
2024-05-09T07:30:34.740Z,29.80
2024-05-09T07:33:03.876Z,31.17
2024-05-09T07:35:31.362Z,26.70
2024-05-09T07:37:58.662Z,31.20
2024-05-09T07:40:33.074Z,25.10
2024-05-09T07:43:04.302Z,23.60
2024-05-09T07:45:47.991Z,19.43
2024-05-09T07:53:39.323Z,23.23
2024-05-09T07:56:10.250Z,21.07
2024-05-09T07:58:38.532Z,15.80
2024-05-09T08:01:06.140Z,20.73
2024-05-09T08:03:34.432Z,18.43
2024-05-09T08:06:01.678Z,19.30
2024-05-09T08:08:28.602Z,22.60
2024-05-09T08:10:55.551Z,20.30
2024-05-09T08:13:22.766Z,22.23
2024-05-09T08:15:49.961Z,19.00
2024-05-09T08:18:17.799Z,16.70
2024-05-09T08:20:48.357Z,17.23
2024-05-09T08:23:15.224Z,15.33
2024-05-09T08:25:42.044Z,13.70
2024-05-09T08:28:09.465Z,15.40
2024-05-09T08:30:38.069Z,14.17
2024-05-09T08:33:06.946Z,15.13
2024-05-09T08:35:34.858Z,16.77
2024-05-09T08:38:07.025Z,14.70
2024-05-09T08:40:36.662Z,14.13
2024-05-09T08:43:10.725Z,11.17
2024-05-09T08:45:44.677Z,11.17
2024-05-09T08:48:15.303Z,15.67
2024-05-09T08:50:44.210Z,16.60
2024-05-09T08:53:12.036Z,13.30
2024-05-09T08:55:42.799Z,13.10
2024-05-09T08:58:15.583Z,14.83
2024-05-09T09:00:45.317Z,13.10
2024-05-09T09:03:19.067Z,11.80
2024-05-09T09:06:11.688Z,13.00
2024-05-09T09:08:39.312Z,13.03
2024-05-09T09:11:06.226Z,14.00
2024-05-09T09:13:33.098Z,12.23
2024-05-09T09:16:01.022Z,15.60
2024-05-09T09:18:29.302Z,12.80
2024-05-09T09:20:56.445Z,14.50
2024-05-09T09:23:23.271Z,13.97
2024-05-09T09:25:50.558Z,14.27
2024-05-09T09:28:17.686Z,14.27
2024-05-09T09:30:45.670Z,14.17
2024-05-09T09:33:12.667Z,16.30
2024-05-09T09:35:42.188Z,14.40
2024-05-09T09:38:10.665Z,13.60
2024-05-09T09:40:45.048Z,12.20
2024-05-09T09:43:23.078Z,14.60
2024-05-09T09:45:52.907Z,12.80
2024-05-09T09:48:21.382Z,14.47
2024-05-09T09:50:51.074Z,14.30
2024-05-09T09:53:19.217Z,14.10
2024-05-09T09:55:46.942Z,11.43
2024-05-09T09:58:17.089Z,11.83
2024-05-09T10:00:44.934Z,14.47
2024-05-09T10:03:12.435Z,12.07
2024-05-09T10:05:42.201Z,13.67
2024-05-09T10:08:12.366Z,13.97
2024-05-09T10:10:39.787Z,11.90
2024-05-09T10:13:07.567Z,13.13
2024-05-09T10:15:51.641Z,14.50
2024-05-09T10:18:29.124Z,13.97
2024-05-09T10:20:57.942Z,16.73
2024-05-09T10:23:36.221Z,17.73
2024-05-09T10:26:06.488Z,15.30
2024-05-09T10:28:36.788Z,13.97
2024-05-09T10:31:15.252Z,13.97
2024-05-09T10:33:48.137Z,13.97
2024-05-09T10:36:18.885Z,13.43
2024-05-09T10:38:45.812Z,15.17
2024-05-09T10:41:12.776Z,13.03
2024-05-09T10:43:43.543Z,15.10
2024-05-09T10:46:11.502Z,13.40
2024-05-09T10:48:39.668Z,12.93
2024-05-09T10:51:06.763Z,14.50
2024-05-09T10:53:44.576Z,13.10
2024-05-09T10:56:13.382Z,15.93
2024-05-09T10:58:40.472Z,13.00
2024-05-09T11:01:09.077Z,14.87
2024-05-09T11:03:37.016Z,12.50
2024-05-09T11:06:05.353Z,9.80
2024-05-09T11:08:34.902Z,13.67
2024-05-09T11:11:06.488Z,10.37
2024-05-09T11:13:36.106Z,9.13
2024-05-09T11:16:04.403Z,10.00
2024-05-09T11:18:36.210Z,14.10
2024-05-09T11:21:13.349Z,13.63
2024-05-09T11:23:40.896Z,12.03
2024-05-09T11:26:09.038Z,10.40
2024-05-09T11:28:36.104Z,14.10
2024-05-09T11:31:08.824Z,15.40
2024-05-09T11:33:41.337Z,15.57
2024-05-09T11:36:09.431Z,14.17
2024-05-09T11:38:36.721Z,13.23
2024-05-09T11:41:04.931Z,12.17
2024-05-09T11:43:32.106Z,18.13
2024-05-09T11:45:59.357Z,13.43
2024-05-09T11:48:26.801Z,11.13
2024-05-09T11:50:55.310Z,11.50
2024-05-09T11:53:22.488Z,11.43
2024-05-09T11:55:49.564Z,12.03
2024-05-09T11:58:18.146Z,14.13
2024-05-09T12:00:46.582Z,9.63
2024-05-09T12:03:13.901Z,10.60
2024-05-09T12:05:41.418Z,10.73
2024-05-09T12:08:08.375Z,10.97
2024-05-09T12:10:36.644Z,10.63
2024-05-09T12:13:05.970Z,13.70
2024-05-09T12:15:36.282Z,15.23
2024-05-09T12:18:04.726Z,14.57
2024-05-09T12:20:37.308Z,15.17
2024-05-09T12:23:06.918Z,15.87
2024-05-09T12:25:34.212Z,13.77
2024-05-09T12:28:01.378Z,13.60
2024-05-09T12:30:36.147Z,14.40
2024-05-09T12:33:14.010Z,12.93
2024-05-09T12:35:44.368Z,16.20
2024-05-09T12:38:14.380Z,13.23
2024-05-09T12:40:42.098Z,16.20
2024-05-09T12:43:10.392Z,12.33
2024-05-09T12:45:39.363Z,14.27
2024-05-09T12:48:11.356Z,12.30
2024-05-09T12:50:39.264Z,11.07
2024-05-09T12:53:06.125Z,11.00
2024-05-09T12:55:41.303Z,13.43
2024-05-09T12:58:16.391Z,9.87
2024-05-09T13:00:44.041Z,10.37
2024-05-09T13:03:11.158Z,10.73
2024-05-09T13:05:41.003Z,11.07
2024-05-09T13:08:08.175Z,12.73
2024-05-09T13:10:35.065Z,11.60
2024-05-09T13:13:02.428Z,9.03
2024-05-09T13:15:31.186Z,11.10
2024-05-09T13:18:01.989Z,8.17
2024-05-09T13:20:33.808Z,8.60
2024-05-09T13:23:04.990Z,10.73
2024-05-09T13:25:34.356Z,10.43
2024-05-09T13:28:01.510Z,11.33
2024-05-09T13:30:37.361Z,7.90
2024-05-09T13:33:07.506Z,11.10
2024-05-09T13:35:35.671Z,11.30
2024-05-09T13:38:03.919Z,8.53
2024-05-09T13:40:34.561Z,8.10
2024-05-09T13:43:05.992Z,8.80
2024-05-09T13:45:33.648Z,9.17
2024-05-09T13:48:02.121Z,9.67
2024-05-09T13:50:34.614Z,7.47
2024-05-09T13:53:05.790Z,7.33
2024-05-09T13:55:33.847Z,7.63
2024-05-09T13:58:01.246Z,7.20
2024-05-09T14:00:41.663Z,7.20
2024-05-09T14:03:14.589Z,11.70
2024-05-09T14:05:42.111Z,8.53
2024-05-09T14:08:09.351Z,8.27
2024-05-09T14:10:43.132Z,7.80
2024-05-09T14:13:10.296Z,11.80
2024-05-09T14:15:37.637Z,11.93
2024-05-09T14:18:04.795Z,7.73
2024-05-09T14:20:32.577Z,7.10
2024-05-09T14:23:00.875Z,7.03
2024-05-09T14:25:35.090Z,6.93
2024-05-09T14:28:04.026Z,6.60
2024-05-09T14:30:36.667Z,7.87
2024-05-09T14:33:06.381Z,7.50
2024-05-09T14:35:34.389Z,10.40
2024-05-09T14:38:01.408Z,7.73
2024-05-09T14:40:39.325Z,8.43
2024-05-09T14:43:14.123Z,11.53
2024-05-09T14:45:41.945Z,7.10
2024-05-09T14:48:09.594Z,6.73
2024-05-09T14:50:39.232Z,5.63
2024-05-09T14:53:08.519Z,6.37
2024-05-09T14:55:37.700Z,5.03
2024-05-09T14:58:09.709Z,6.40
2024-05-09T15:00:45.980Z,5.53
2024-05-09T15:03:20.088Z,11.27
2024-05-09T15:05:48.036Z,5.30
2024-05-09T15:08:17.494Z,5.37
2024-05-09T15:10:44.624Z,3.90
2024-05-09T15:13:13.471Z,6.50
2024-05-09T15:15:42.634Z,4.30
2024-05-09T15:18:09.776Z,5.17
2024-05-09T15:20:37.901Z,5.53
2024-05-09T15:23:06.834Z,5.20
2024-05-09T15:25:34.722Z,4.83
2024-05-09T15:28:01.845Z,6.13
2024-05-09T15:30:32.104Z,5.77
2024-05-09T15:33:03.267Z,6.80
2024-05-09T15:35:30.475Z,3.97
2024-05-09T15:37:58.368Z,5.30
2024-05-09T15:40:31.622Z,11.57
2024-05-09T15:43:06.185Z,7.83
2024-05-09T15:45:34.227Z,8.80
2024-05-09T15:48:02.618Z,6.73
2024-05-09T15:50:36.992Z,8.60
2024-05-09T15:53:08.125Z,5.90
2024-05-09T15:55:35.964Z,6.17
2024-05-09T15:58:04.049Z,7.47
2024-05-09T16:00:37.978Z,6.13
2024-05-09T16:03:13.433Z,7.13
2024-05-09T16:05:43.284Z,7.77
2024-05-09T16:08:11.501Z,7.30
2024-05-09T16:10:43.419Z,6.80
2024-05-09T16:13:12.455Z,8.83
2024-05-09T16:15:39.752Z,7.67
2024-05-09T16:18:07.107Z,7.13
2024-05-09T16:20:39.560Z,10.37
2024-05-09T16:23:09.072Z,8.53
2024-05-09T16:25:36.919Z,8.40
2024-05-09T16:28:08.494Z,7.30
2024-05-09T16:30:40.439Z,7.90
2024-05-09T16:33:08.601Z,8.70
2024-05-09T16:35:36.994Z,10.43
2024-05-09T16:38:04.356Z,7.20
2024-05-09T16:40:38.001Z,8.73
2024-05-09T16:43:11.586Z,6.43
2024-05-09T16:45:40.465Z,8.83
2024-05-09T16:48:08.399Z,6.97
2024-05-09T16:50:36.465Z,7.13
2024-05-09T16:53:05.667Z,7.77
2024-05-09T16:55:33.432Z,8.50
2024-05-09T16:58:01.052Z,6.87
2024-05-09T17:00:38.480Z,6.30
2024-05-09T17:03:12.484Z,12.50
2024-05-09T17:05:40.647Z,8.33
2024-05-09T17:08:08.465Z,8.90
2024-05-09T17:10:39.127Z,8.73
2024-05-09T17:13:07.633Z,10.63
2024-05-09T17:15:36.911Z,12.10
2024-05-09T17:18:06.214Z,11.13
2024-05-09T17:20:36.240Z,12.37
2024-05-09T17:23:06.003Z,13.43
2024-05-09T17:25:33.682Z,12.87
2024-05-09T17:28:07.132Z,13.00
2024-05-09T17:30:37.794Z,14.37
2024-05-09T17:33:08.407Z,12.83
2024-05-09T17:35:36.821Z,15.53
2024-05-09T17:38:05.249Z,14.80
2024-05-09T17:40:35.790Z,16.07
2024-05-09T17:43:05.574Z,15.23
2024-05-09T17:45:33.320Z,14.90
2024-05-09T17:48:01.344Z,14.90
2024-05-09T17:50:35.121Z,14.00
2024-05-09T17:53:08.010Z,17.00
2024-05-09T17:55:35.736Z,14.80
2024-05-09T17:58:04.082Z,15.30
2024-05-09T18:00:38.017Z,14.43
2024-05-09T18:03:12.022Z,15.67
2024-05-09T18:05:40.427Z,14.13
2024-05-09T18:08:08.137Z,14.17
2024-05-09T18:10:38.554Z,16.10
2024-05-09T18:13:11.436Z,14.60
2024-05-09T18:15:39.807Z,14.60
2024-05-09T18:18:07.964Z,14.60
2024-05-09T18:20:42.274Z,16.67
2024-05-09T18:23:14.191Z,16.67
2024-05-09T18:25:42.037Z,14.10
2024-05-09T18:28:09.162Z,14.40
2024-05-09T18:30:37.336Z,13.50
2024-05-09T18:33:06.843Z,13.07
2024-05-09T18:35:35.247Z,12.90
2024-05-09T18:38:02.881Z,13.40
2024-05-09T18:40:34.448Z,14.83
2024-05-09T18:43:06.139Z,12.73
2024-05-09T18:45:34.743Z,11.60
2024-05-09T18:48:01.794Z,12.37
2024-05-09T18:50:35.135Z,10.90
2024-05-09T18:53:10.172Z,11.30
2024-05-09T18:55:37.559Z,10.90
2024-05-09T18:58:05.056Z,12.13
2024-05-09T19:00:36.256Z,13.47
2024-05-09T19:03:11.403Z,12.63
2024-05-09T19:05:40.984Z,11.50
2024-05-09T19:08:09.008Z,10.77
2024-05-09T19:10:38.441Z,12.03
2024-05-09T19:13:10.172Z,10.63
2024-05-09T19:15:40.090Z,11.63
2024-05-09T19:18:07.872Z,14.50
2024-05-09T19:20:36.550Z,13.97
2024-05-09T19:23:05.753Z,15.10
2024-05-09T19:25:33.349Z,13.50
2024-05-09T19:28:01.218Z,13.57
2024-05-09T19:30:37.571Z,12.60
2024-05-09T19:33:09.215Z,13.63
2024-05-09T19:35:36.810Z,13.60
2024-05-09T19:38:04.276Z,12.93
2024-05-09T19:40:33.619Z,11.33
2024-05-09T19:43:03.191Z,11.13
2024-05-09T19:45:32.193Z,11.80
2024-05-09T19:47:59.289Z,12.13
2024-05-09T19:50:32.797Z,12.43
2024-05-09T19:53:07.857Z,15.50
2024-05-09T19:55:34.853Z,14.03
2024-05-09T19:58:07.088Z,11.90
2024-05-09T20:00:37.902Z,11.83
2024-05-09T20:03:07.495Z,12.47
2024-05-09T20:05:35.179Z,19.53
2024-05-09T20:08:02.461Z,13.40
2024-05-09T20:10:32.743Z,12.20
2024-05-09T20:13:02.633Z,11.03
2024-05-09T20:15:31.139Z,13.77
2024-05-09T20:17:58.257Z,12.40
2024-05-09T20:20:33.692Z,11.37
2024-05-09T20:23:08.514Z,13.23
2024-05-09T20:25:35.439Z,13.07
2024-05-09T20:28:02.989Z,11.40
2024-05-09T20:30:32.900Z,11.13
2024-05-09T20:33:07.187Z,13.63
2024-05-09T20:35:35.528Z,11.97
2024-05-09T20:38:03.384Z,13.70
2024-05-09T20:40:35.404Z,13.63
2024-05-09T20:43:06.457Z,15.23
2024-05-09T20:45:33.951Z,16.83
2024-05-09T20:48:01.539Z,14.70
2024-05-09T20:50:36.728Z,13.37
2024-05-09T20:53:15.347Z,21.43
2024-05-09T20:55:45.791Z,13.93
2024-05-09T20:58:13.224Z,11.43
2024-05-09T21:00:43.720Z,13.60
2024-05-09T21:03:14.969Z,12.23
2024-05-09T21:05:43.277Z,12.27
2024-05-09T21:08:10.319Z,14.00
2024-05-09T21:10:37.812Z,15.63
2024-05-09T21:13:06.284Z,16.23
2024-05-09T21:15:34.234Z,13.40
2024-05-09T21:18:01.315Z,11.80
2024-05-09T21:20:31.857Z,16.03
2024-05-09T21:23:03.714Z,14.63
2024-05-09T21:25:31.106Z,12.70
2024-05-09T21:27:58.558Z,15.10
2024-05-09T21:30:38.249Z,16.30
2024-05-09T21:33:10.239Z,14.80
2024-05-09T21:35:38.640Z,13.10
2024-05-09T21:38:05.764Z,15.97
2024-05-09T21:40:35.659Z,15.80
2024-05-09T21:43:04.762Z,13.27
2024-05-09T21:45:32.222Z,15.67
2024-05-09T21:47:59.337Z,13.37
2024-05-09T21:50:36.114Z,12.50
2024-05-09T21:53:07.284Z,14.80
2024-05-09T21:55:34.487Z,13.83
2024-05-09T21:58:01.606Z,15.17
2024-05-09T22:00:35.489Z,14.83
2024-05-09T22:03:06.061Z,15.53
2024-05-09T22:05:33.283Z,12.47
2024-05-09T22:08:00.425Z,16.53
2024-05-09T22:10:33.702Z,13.30
2024-05-09T22:13:04.011Z,15.60
2024-05-09T22:15:35.252Z,14.10
2024-05-09T22:18:02.557Z,14.10
2024-05-09T22:20:36.447Z,13.07
2024-05-09T22:23:05.750Z,18.07
2024-05-09T22:25:33.048Z,14.97
2024-05-09T22:28:01.723Z,14.33
2024-05-09T22:30:35.792Z,16.80
2024-05-09T22:33:07.299Z,15.87
2024-05-09T22:35:34.463Z,16.73
2024-05-09T22:38:02.826Z,22.00
2024-05-09T22:40:38.917Z,18.87
2024-05-09T22:43:16.333Z,15.47
2024-05-09T22:45:43.354Z,17.57
2024-05-09T22:48:10.819Z,18.73
2024-05-09T22:50:37.729Z,18.43
2024-05-09T22:53:05.514Z,16.03
2024-05-09T22:55:32.458Z,17.73
2024-05-09T22:57:59.346Z,21.00
2024-05-09T23:00:31.411Z,19.50
2024-05-09T23:03:03.317Z,15.70
2024-05-09T23:05:32.082Z,16.37
2024-05-09T23:08:00.341Z,15.87
2024-05-09T23:10:32.532Z,18.43
2024-05-09T23:13:03.920Z,17.17
2024-05-09T23:15:31.149Z,16.93
2024-05-09T23:17:58.659Z,16.40
2024-05-09T23:20:35.887Z,21.87
2024-05-09T23:23:10.403Z,17.10
2024-05-09T23:25:38.391Z,16.07
2024-05-09T23:28:05.662Z,17.67
2024-05-09T23:30:37.823Z,19.13
2024-05-09T23:33:08.109Z,18.47
2024-05-09T23:35:35.398Z,20.37
2024-05-09T23:38:02.271Z,19.00
2024-05-09T23:42:59.020Z,18.43
2024-05-09T23:45:26.351Z,15.20
2024-05-09T23:47:53.822Z,18.10
2024-05-09T23:50:26.754Z,18.20
2024-05-09T23:53:00.674Z,19.80
2024-05-09T23:55:28.588Z,20.17
2024-05-09T23:57:55.549Z,18.10
